Time;durP1;ratioP1;P1;durP2;ratioP2;P2;SDS_P1;SDS_P2;PMS_P1;PMS_P2;Temp;Humidity;BMP_temperature;BMP_pressure;BME280_temperature;BME280_humidity;BME280_pressure;Samples;Min_cycle;Max_cycle;Signal;HPM_P1;HPM_P2
2022/04/09 00:00:25;;;;;;;16.10;2.40;;;;;;;6.00;70.66;100446.16;5085404;28;20106;-35
2022/04/09 00:02:51;;;;;;;16.65;2.20;;;;;;;6.02;71.03;100445.00;5103423;28;20050;-36
2022/04/09 00:05:16;;;;;;;23.58;3.30;;;;;;;5.98;71.27;100454.34;5098864;28;20021;-33
2022/04/09 00:07:42;;;;;;;13.25;2.05;;;;;;;6.03;71.53;100452.03;5096422;28;20057;-34
2022/04/09 00:10:09;;;;;;;28.08;3.08;;;;;;;5.98;71.22;100456.16;5091661;28;20032;-35
2022/04/09 00:12:35;;;;;;;25.00;2.08;;;;;;;5.98;69.60;100454.34;5093466;28;20039;-34
2022/04/09 00:15:00;;;;;;;14.73;1.60;;;;;;;5.97;67.83;100467.88;5096689;28;20020;-35
2022/04/09 00:17:25;;;;;;;17.77;2.40;;;;;;;5.89;66.74;100463.28;5096485;28;20111;-36
2022/04/09 00:19:52;;;;;;;17.60;2.50;;;;;;;5.86;66.62;100474.31;5099641;28;20032;-36
2022/04/09 00:22:17;;;;;;;10.25;1.95;;;;;;;5.83;66.53;100472.78;5104401;28;20025;-34
2022/04/09 00:24:42;;;;;;;19.70;3.10;;;;;;;5.75;67.22;100471.91;5100138;28;20091;-34
2022/04/09 00:27:08;;;;;;;26.05;3.35;;;;;;;5.73;67.99;100472.91;5073410;28;20028;-36
2022/04/09 00:29:33;;;;;;;23.85;2.60;;;;;;;5.72;68.70;100481.09;5100566;28;20028;-33
2022/04/09 00:31:58;;;;;;;15.38;2.53;;;;;;;5.74;69.55;100476.44;5108158;28;20036;-37
2022/04/09 00:34:24;;;;;;;16.02;2.55;;;;;;;5.76;69.49;100484.25;5093009;28;20452;-35
2022/04/09 00:36:49;;;;;;;26.48;3.95;;;;;;;5.80;70.04;100486.47;5103261;28;20119;-34
2022/04/09 00:39:15;;;;;;;26.98;2.63;;;;;;;5.81;70.55;100496.13;5091264;28;20436;-33
2022/04/09 00:41:41;;;;;;;20.65;2.67;;;;;;;5.81;71.56;100497.97;5100512;28;20029;-33
2022/04/09 00:44:24;;;;;;;21.45;3.38;;;;;;;5.78;71.07;100507.16;5088435;28;20028;-35
2022/04/09 00:46:49;;;;;;;26.02;2.67;;;;;;;5.75;71.35;100510.13;5102527;28;20032;-35
2022/04/09 00:49:16;;;;;;;22.98;3.00;;;;;;;5.73;70.86;100512.13;5103946;28;20055;-34
2022/04/09 00:51:43;;;;;;;25.40;2.75;;;;;;;5.70;69.98;100509.78;5100067;28;20071;-34
2022/04/09 00:54:13;;;;;;;30.88;2.67;;;;;;;5.73;68.97;100515.63;5094174;28;20103;-33
2022/04/09 00:56:40;;;;;;;21.77;2.25;;;;;;;5.72;68.38;100507.78;5093526;28;20096;-33
2022/04/09 00:59:06;;;;;;;20.33;3.65;;;;;;;5.73;68.66;100522.81;5090251;28;20133;-33
2022/04/09 01:01:36;;;;;;;21.45;2.30;;;;;;;5.75;68.69;100523.50;5082488;28;20051;-33
2022/04/09 01:04:08;;;;;;;38.63;3.38;;;;;;;5.75;68.99;100528.00;5102319;28;20059;-36
2022/04/09 01:06:34;;;;;;;28.98;2.95;;;;;;;5.73;70.57;100536.16;5090582;28;20036;-35
2022/04/09 01:08:59;;;;;;;32.35;3.10;;;;;;;5.73;71.17;100536.16;5088052;28;20028;-33
2022/04/09 01:11:25;;;;;;;31.90;3.58;;;;;;;5.75;71.29;100538.69;5095838;28;20024;-32
2022/04/09 01:13:51;;;;;;;22.13;2.95;;;;;;;5.76;71.45;100546.50;5110046;28;20040;-33
2022/04/09 01:16:16;;;;;;;19.83;2.67;;;;;;;5.79;71.10;100546.19;5103746;28;20031;-33
2022/04/09 01:18:41;;;;;;;19.67;2.70;;;;;;;5.83;70.98;100547.56;5081425;28;20131;-34
2022/04/09 01:21:07;;;;;;;30.27;2.65;;;;;;;5.87;69.88;100564.09;5077173;28;20020;-36
2022/04/09 01:23:33;;;;;;;22.25;2.40;;;;;;;6.02;69.29;100577.75;5104136;28;20033;-33
2022/04/09 01:25:59;;;;;;;23.42;2.75;;;;;;;6.02;69.55;100583.91;5106731;28;20057;-34
2022/04/09 01:28:25;;;;;;;14.60;1.90;;;;;;;5.97;70.35;100593.41;5104014;28;20034;-33
2022/04/09 01:30:51;;;;;;;14.02;1.88;;;;;;;5.83;68.88;100600.16;5105630;28;20036;-34
2022/04/09 01:33:21;;;;;;;13.75;1.42;;;;;;;5.56;68.84;100609.13;5090017;28;20031;-35
2022/04/09 01:35:47;;;;;;;9.27;1.20;;;;;;;5.40;69.49;100597.34;5107777;28;20080;-34
2022/04/09 01:38:13;;;;;;;9.48;1.60;;;;;;;5.29;70.57;100602.88;5097548;28;20036;-34
2022/04/09 01:40:39;;;;;;;15.40;2.05;;;;;;;5.16;72.55;100599.78;5089204;28;20318;-34
2022/04/09 01:43:05;;;;;;;8.07;1.25;;;;;;;5.09;71.97;100602.22;5092593;28;20032;-36
2022/04/09 01:45:30;;;;;;;11.35;1.42;;;;;;;4.98;72.09;100603.28;5094859;28;20039;-34
2022/04/09 01:47:57;;;;;;;11.85;1.45;;;;;;;4.99;73.21;100604.13;5088281;28;20088;-34
2022/04/09 01:50:22;;;;;;;8.18;1.58;;;;;;;4.97;73.72;100606.09;5089111;28;20036;-36
2022/04/09 01:52:48;;;;;;;17.38;1.52;;;;;;;4.97;73.39;100614.09;5099180;28;20390;-33
2022/04/09 01:55:13;;;;;;;15.27;2.15;;;;;;;4.92;74.92;100614.53;5088033;28;20058;-35
2022/04/09 01:57:39;;;;;;;12.18;2.10;;;;;;;4.89;74.86;100617.50;5087576;28;20087;-35
2022/04/09 02:00:07;;;;;;;21.00;2.80;;;;;;;4.85;75.86;100616.16;5087778;28;20032;-37
2022/04/09 02:02:32;;;;;;;12.48;1.95;;;;;;;4.82;76.55;100622.63;5070872;28;20033;-35
2022/04/09 02:04:58;;;;;;;19.52;2.67;;;;;;;4.81;77.00;100623.59;5095329;28;20106;-35
2022/04/09 02:07:23;;;;;;;21.25;2.40;;;;;;;4.78;77.64;100623.91;5109533;28;20035;-33
2022/04/09 02:09:49;;;;;;;42.63;4.10;;;;;;;4.79;77.70;100628.25;5098075;28;20062;-34
2022/04/09 02:12:14;;;;;;;29.05;3.92;;;;;;;4.80;78.39;100626.44;5089520;28;20075;-35
2022/04/09 02:14:40;;;;;;;23.25;2.42;;;;;;;4.85;79.14;100632.16;5102836;28;20058;-35
2022/04/09 02:17:05;;;;;;;23.23;3.08;;;;;;;4.88;79.60;100637.19;5088803;28;20071;-33
2022/04/09 02:19:30;;;;;;;38.88;3.92;;;;;;;4.95;80.59;100638.28;5090296;28;20024;-33
2022/04/09 02:21:56;;;;;;;19.70;2.95;;;;;;;4.99;80.40;100644.13;5078151;28;20165;-35
2022/04/09 02:24:21;;;;;;;25.83;2.38;;;;;;;5.02;79.74;100636.66;5106191;28;20020;-34
2022/04/09 02:26:46;;;;;;;27.25;3.03;;;;;;;5.06;79.11;100651.38;5096786;28;20035;-36
2022/04/09 02:29:12;;;;;;;17.08;2.42;;;;;;;5.09;78.35;100649.41;5090839;28;20039;-36
2022/04/09 02:31:38;;;;;;;15.00;2.53;;;;;;;5.11;78.16;100653.59;5086360;28;20041;-36
2022/04/09 02:34:04;;;;;;;13.55;1.70;;;;;;;5.12;76.09;100654.44;5088253;28;20033;-35
2022/04/09 02:36:31;;;;;;;11.52;1.95;;;;;;;5.15;74.39;100643.47;5088067;28;20039;-34
2022/04/09 02:38:57;;;;;;;19.63;2.63;;;;;;;5.22;73.18;100660.53;5098774;28;20052;-36
2022/04/09 02:41:22;;;;;;;25.13;2.55;;;;;;;5.25;73.14;100660.25;5094214;28;20055;-36
2022/04/09 02:43:48;;;;;;;23.80;2.58;;;;;;;5.25;72.28;100665.56;5103970;28;20119;-35
2022/04/09 02:46:13;;;;;;;11.95;2.13;;;;;;;5.29;71.67;100672.25;5092919;28;20024;-33
2022/04/09 02:48:38;;;;;;;15.85;1.95;;;;;;;5.27;71.37;100668.94;5088448;28;20049;-33
2022/04/09 02:51:04;;;;;;;18.65;2.17;;;;;;;5.27;72.31;100671.59;5089723;28;20029;-32
2022/04/09 02:53:29;;;;;;;14.70;2.30;;;;;;;5.29;71.95;100672.25;5088515;28;20104;-34
2022/04/09 02:55:54;;;;;;;13.00;2.20;;;;;;;5.28;72.19;100667.94;5100161;28;20012;-33
2022/04/09 02:58:19;;;;;;;23.77;2.33;;;;;;;5.28;72.44;100667.94;5092914;28;20043;-32
2022/04/09 03:00:45;;;;;;;18.35;2.50;;;;;;;5.26;72.85;100668.06;5106094;28;20024;-34
2022/04/09 03:03:10;;;;;;;16.48;2.35;;;;;;;5.24;74.01;100679.91;5104024;28;20036;-33
2022/04/09 03:05:35;;;;;;;11.65;1.92;;;;;;;5.23;74.20;100675.56;5096119;28;20024;-34
2022/04/09 03:08:01;;;;;;;18.60;2.40;;;;;;;5.24;74.79;100678.09;5089222;28;20028;-33
2022/04/09 03:10:26;;;;;;;17.23;2.75;;;;;;;5.23;75.77;100672.88;5091529;28;20064;-33
2022/04/09 03:12:52;;;;;;;22.15;2.42;;;;;;;5.25;75.92;100681.59;5088362;28;20062;-32
2022/04/09 03:15:17;;;;;;;28.83;2.30;;;;;;;5.27;74.84;100684.94;5086903;28;20067;-35
2022/04/09 03:17:43;;;;;;;19.73;2.20;;;;;;;5.40;72.59;100695.25;5090730;28;20040;-33
2022/04/09 03:20:09;;;;;;;13.18;1.92;;;;;;;5.43;71.38;100690.44;5088874;28;20032;-33
2022/04/09 03:22:34;;;;;;;23.58;2.10;;;;;;;5.47;70.70;100698.97;5082264;28;20048;-33
2022/04/09 03:25:01;;;;;;;26.10;4.88;;;;;;;5.48;70.12;100693.50;5081789;28;20078;-34
2022/04/09 03:27:26;;;;;;;18.10;1.90;;;;;;;5.57;68.81;100696.22;5087769;28;20135;-36
2022/04/09 03:29:55;;;;;;;25.15;2.38;;;;;;;5.61;68.63;100705.59;5088440;28;20032;-36
2022/04/09 03:32:21;;;;;;;22.38;2.30;;;;;;;5.63;68.22;100707.13;5080733;28;20444;-32
2022/04/09 03:34:47;;;;;;;16.13;1.98;;;;;;;5.65;68.08;100715.81;5074784;28;20039;-35
2022/04/09 03:37:12;;;;;;;15.30;1.98;;;;;;;5.64;68.31;100707.97;5091315;28;20032;-35
2022/04/09 03:39:38;;;;;;;20.55;2.90;;;;;;;5.65;68.54;100720.31;5090085;28;20269;-37
2022/04/09 03:42:06;;;;;;;18.02;2.63;;;;;;;5.66;69.25;100722.84;5091418;28;20037;-34
2022/04/09 03:44:31;;;;;;;21.10;2.50;;;;;;;5.72;69.91;100726.75;5092498;28;20052;-33
2022/04/09 03:46:58;;;;;;;25.88;2.63;;;;;;;5.73;70.64;100728.41;5092693;28;20142;-33
2022/04/09 03:49:23;;;;;;;18.98;2.28;;;;;;;5.73;70.76;100725.75;5073900;28;20046;-33
2022/04/09 03:51:49;;;;;;;23.58;2.58;;;;;;;5.68;71.81;100730.69;5091236;28;20044;-32
2022/04/09 03:54:14;;;;;;;21.33;2.35;;;;;;;5.65;71.77;100725.66;5090577;28;20059;-31
2022/04/09 03:56:41;;;;;;;28.83;2.65;;;;;;;5.66;71.83;100732.69;5091399;28;20036;-33
2022/04/09 03:59:06;;;;;;;25.35;3.08;;;;;;;5.61;71.72;100740.31;5072893;28;20021;-33
2022/04/09 04:01:31;;;;;;;17.55;2.50;;;;;;;5.59;72.19;100735.13;5092003;28;20040;-34
2022/04/09 04:03:57;;;;;;;20.23;2.67;;;;;;;5.60;72.58;100743.97;5090687;28;20154;-34
2022/04/09 04:06:23;;;;;;;22.63;1.70;;;;;;;5.58;72.47;100744.16;5091968;28;20454;-34
2022/04/09 04:08:48;;;;;;;12.23;2.15;;;;;;;5.64;71.73;100751.53;5090943;28;20100;-33
2022/04/09 04:11:13;;;;;;;22.65;3.05;;;;;;;5.68;71.79;100746.72;5092060;28;20021;-34
2022/04/09 04:13:39;;;;;;;30.80;2.67;;;;;;;5.73;70.69;100757.78;5091166;28;20071;-34
2022/04/09 04:16:05;;;;;;;22.88;3.10;;;;;;;5.70;70.27;100760.75;5091781;28;20020;-34
2022/04/09 04:18:30;;;;;;;25.17;3.72;;;;;;;5.75;69.85;100761.16;5091147;28;20029;-33
2022/04/09 04:20:56;;;;;;;27.00;3.42;;;;;;;5.71;69.48;100773.13;5090964;28;20032;-33
2022/04/09 04:23:23;;;;;;;19.45;2.72;;;;;;;5.70;69.54;100774.13;5090841;28;20052;-34
2022/04/09 04:25:48;;;;;;;21.63;2.60;;;;;;;5.68;69.02;100768.09;5073519;28;20054;-34
2022/04/09 04:28:13;;;;;;;17.83;2.55;;;;;;;5.66;68.64;100776.25;5091188;28;20036;-34
2022/04/09 04:30:39;;;;;;;19.58;2.00;;;;;;;5.65;69.18;100774.56;5091091;28;20021;-35
2022/04/09 04:33:04;;;;;;;19.63;3.20;;;;;;;5.65;70.14;100779.91;5091103;28;20028;-34
2022/04/09 04:35:29;;;;;;;20.95;2.17;;;;;;;5.64;70.34;100772.91;5090528;28;20035;-33
2022/04/09 04:37:55;;;;;;;21.15;2.30;;;;;;;5.72;69.78;100774.81;5088713;28;20050;-36
2022/04/09 04:40:20;;;;;;;27.73;2.25;;;;;;;5.77;70.21;100779.69;5088998;28;20082;-33
2022/04/09 04:42:45;;;;;;;25.75;2.45;;;;;;;5.84;70.28;100776.25;5089272;28;20087;-36
2022/04/09 04:45:11;;;;;;;20.75;2.92;;;;;;;5.87;71.94;100785.78;5108978;28;20035;-34
2022/04/09 04:47:47;;;;;;;22.10;2.67;;;;;;;5.87;73.17;100791.13;5109194;28;20028;-33
2022/04/09 04:50:14;;;;;;;27.30;3.28;;;;;;;5.88;74.65;100796.31;5068348;28;20049;-34
2022/04/09 04:52:39;;;;;;;28.63;3.60;;;;;;;5.92;76.17;100791.50;5069178;28;20021;-34
2022/04/09 04:55:05;;;;;;;36.22;3.70;;;;;;;5.87;76.42;100793.78;5089852;28;20096;-35
2022/04/09 04:57:42;;;;;;;27.20;3.00;;;;;;;5.84;76.67;100796.78;5088483;28;20098;-34
2022/04/09 05:00:08;;;;;;;20.73;3.80;;;;;;;5.84;76.58;100789.59;5088076;28;20036;-36
2022/04/09 05:02:34;;;;;;;36.55;5.03;;;;;;;5.87;76.62;100802.66;5088699;28;20455;-33
2022/04/09 05:05:01;;;;;;;21.63;2.95;;;;;;;5.90;76.78;100807.69;5094908;28;20522;-34
2022/04/09 05:07:38;;;;;;;22.13;3.15;;;;;;;6.00;76.51;100818.31;5089261;28;20036;-35
2022/04/09 05:10:05;;;;;;;28.63;3.25;;;;;;;6.02;75.56;100821.69;5108837;28;20260;-33
2022/04/09 05:12:32;;;;;;;16.45;1.83;;;;;;;6.06;73.83;100819.56;5073438;28;20028;-36
2022/04/09 05:14:58;;;;;;;17.25;1.95;;;;;;;6.08;72.80;100833.59;5088187;28;20033;-37
2022/04/09 05:17:24;;;;;;;15.82;1.80;;;;;;;6.08;72.72;100838.94;5103899;28;20039;-33
2022/04/09 05:19:50;;;;;;;18.05;2.03;;;;;;;6.00;74.23;100857.56;5090312;28;20091;-36
2022/04/09 05:22:15;;;;;;;22.02;3.13;;;;;;;6.02;74.69;100859.09;5088776;28;20059;-34
2022/04/09 05:24:40;;;;;;;16.08;2.38;;;;;;;5.93;75.35;100855.50;5107800;28;20432;-37
2022/04/09 05:27:06;;;;;;;10.55;1.85;;;;;;;5.80;74.79;100863.00;5094768;28;20036;-35
2022/04/09 05:29:31;;;;;;;12.52;1.52;;;;;;;5.68;71.60;100861.53;5087868;28;20036;-34
2022/04/09 05:31:57;;;;;;;21.48;1.98;;;;;;;5.55;72.04;100863.72;5088672;28;20044;-35
2022/04/09 05:34:22;;;;;;;19.15;2.38;;;;;;;5.54;71.54;100865.56;5102665;28;20039;-33
2022/04/09 05:36:47;;;;;;;14.60;2.70;;;;;;;5.52;71.62;100864.03;5087617;28;20025;-34
2022/04/09 05:39:15;;;;;;;20.52;2.75;;;;;;;5.47;72.24;100856.44;5086157;28;20029;-35
2022/04/09 05:41:41;;;;;;;19.03;2.57;;;;;;;5.53;73.21;100863.03;5100455;28;20031;-33
2022/04/09 05:44:06;;;;;;;17.10;2.45;;;;;;;5.56;74.25;100865.41;5107614;28;20032;-34
2022/04/09 05:46:32;;;;;;;19.35;2.85;;;;;;;5.60;74.90;100872.13;5092064;28;20058;-34
2022/04/09 05:48:57;;;;;;;17.42;3.08;;;;;;;5.65;75.06;100869.84;5088658;28;20024;-34
2022/04/09 05:51:24;;;;;;;19.70;2.63;;;;;;;5.73;74.96;100872.59;5104674;28;20134;-34
2022/04/09 05:53:49;;;;;;;24.75;2.83;;;;;;;5.77;74.65;100874.00;5106671;28;20595;-33
2022/04/09 05:56:14;;;;;;;14.82;3.10;;;;;;;5.78;74.68;100881.00;5094349;28;20099;-35
2022/04/09 05:58:42;;;;;;;19.40;2.75;;;;;;;5.77;74.70;100884.69;5086035;28;20040;-34
2022/04/09 06:01:07;;;;;;;23.23;2.95;;;;;;;5.79;74.59;100890.69;5088419;28;20138;-36
2022/04/09 06:03:33;;;;;;;25.13;3.13;;;;;;;5.80;74.56;100889.72;5102527;28;20021;-32
2022/04/09 06:05:58;;;;;;;16.05;2.90;;;;;;;5.86;74.54;100891.78;5097053;28;20046;-34
2022/04/09 06:08:23;;;;;;;24.90;2.83;;;;;;;5.90;74.39;100906.53;5106415;28;20020;-34
2022/04/09 06:10:49;;;;;;;26.55;3.10;;;;;;;5.94;74.56;100907.94;5088711;28;20280;-34
2022/04/09 06:13:15;;;;;;;19.92;2.95;;;;;;;5.95;75.10;100914.13;5086493;28;20048;-36
2022/04/09 06:15:41;;;;;;;18.58;2.80;;;;;;;6.03;74.89;100910.69;5089466;28;20020;-33
2022/04/09 06:18:07;;;;;;;13.23;2.65;;;;;;;6.07;74.34;100920.09;5087898;28;20044;-33
2022/04/09 06:20:32;;;;;;;29.15;4.43;;;;;;;6.04;73.80;100918.56;5089285;28;20469;-34
2022/04/09 06:22:59;;;;;;;13.82;3.13;;;;;;;6.04;73.55;100918.56;5107060;28;20032;-34
2022/04/09 06:25:25;;;;;;;19.43;2.80;;;;;;;6.04;73.72;100915.06;5086872;28;20032;-35
2022/04/09 06:27:50;;;;;;;13.38;2.55;;;;;;;6.00;74.46;100919.00;5088158;28;20037;-34
2022/04/09 06:30:15;;;;;;;21.05;2.90;;;;;;;5.95;74.67;100924.81;5083174;28;20027;-36
2022/04/09 06:32:40;;;;;;;26.02;3.83;;;;;;;5.89;75.01;100931.53;5065386;28;20108;-34
2022/04/09 06:35:06;;;;;;;25.13;3.45;;;;;;;5.85;75.74;100924.84;5080165;28;20020;-35
2022/04/09 06:37:32;;;;;;;28.77;3.92;;;;;;;5.84;75.85;100939.16;5085120;28;20032;-36
2022/04/09 06:39:57;;;;;;;21.10;3.47;;;;;;;5.86;75.88;100947.88;5090055;28;20036;-34
2022/04/09 06:42:22;;;;;;;16.70;3.60;;;;;;;5.83;75.72;100944.66;5087236;28;20043;-36
2022/04/09 06:44:48;;;;;;;19.20;4.50;;;;;;;5.87;75.87;100954.91;5092588;28;20028;-34
2022/04/09 06:47:13;;;;;;;27.35;3.60;;;;;;;5.90;75.93;100957.28;5087098;28;20031;-37
2022/04/09 06:49:39;;;;;;;17.85;2.92;;;;;;;5.89;76.24;100968.94;5104888;28;20039;-34
2022/04/09 06:52:05;;;;;;;26.88;3.58;;;;;;;6.09;76.62;100972.41;5098112;28;20048;-34
2022/04/09 06:54:31;;;;;;;23.25;3.13;;;;;;;6.41;76.76;100983.59;5087785;28;20036;-34
2022/04/09 06:56:56;;;;;;;25.30;3.30;;;;;;;6.56;75.86;101001.63;5096729;28;20042;-33
2022/04/09 06:59:21;;;;;;;23.35;2.92;;;;;;;6.47;75.76;100999.03;5094106;28;20066;-37
2022/04/09 07:01:47;;;;;;;15.25;2.30;;;;;;;6.42;76.35;100990.63;5089638;28;20024;-37
2022/04/09 07:04:12;;;;;;;22.23;2.95;;;;;;;6.24;75.85;101010.16;5089322;28;20029;-36
2022/04/09 07:06:37;;;;;;;10.23;2.03;;;;;;;6.03;77.48;101012.22;5088924;28;20024;-33
2022/04/09 07:09:03;;;;;;;16.10;3.47;;;;;;;5.91;76.85;101007.03;5089492;28;20032;-33
2022/04/09 07:11:28;;;;;;;13.73;2.38;;;;;;;5.83;77.18;101011.44;5089492;28;20535;-33
2022/04/09 07:13:53;;;;;;;11.68;2.20;;;;;;;6.00;77.94;101017.84;5089621;28;20043;-35
2022/04/09 07:16:19;;;;;;;15.38;2.30;;;;;;;6.96;77.21;101018.22;5089855;28;20036;-35
2022/04/09 07:18:44;;;;;;;11.68;2.35;;;;;;;8.75;68.87;101020.16;5089455;28;20035;-36
2022/04/09 07:21:10;;;;;;;18.80;2.00;;;;;;;10.15;66.08;101039.63;5071357;28;20024;-34
2022/04/09 07:23:35;;;;;;;6.47;1.02;;;;;;;10.60;60.50;101033.53;5088067;28;20112;-34
2022/04/09 07:26:00;;;;;;;9.73;1.55;;;;;;;10.11;60.48;101039.13;5089639;28;20029;-37
2022/04/09 07:28:25;;;;;;;11.30;1.65;;;;;;;9.31;63.41;101029.22;5089748;28;20050;-35
2022/04/09 07:30:51;;;;;;;18.27;2.13;;;;;;;8.84;65.88;101051.34;5090248;28;20029;-34
2022/04/09 07:33:16;;;;;;;10.73;1.60;;;;;;;8.09;65.90;101057.47;5087869;28;20024;-35
2022/04/09 07:35:41;;;;;;;10.20;1.30;;;;;;;7.58;65.48;101051.16;5086929;28;20037;-36
2022/04/09 07:38:07;;;;;;;7.18;1.00;;;;;;;7.14;67.24;101051.16;5086938;28;20032;-36
2022/04/09 07:40:33;;;;;;;10.65;1.30;;;;;;;6.91;68.95;101050.78;5089066;28;20025;-35
2022/04/09 07:43:00;;;;;;;6.60;1.23;;;;;;;6.70;69.36;101048.41;5090005;28;20475;-34
2022/04/09 07:45:26;;;;;;;9.20;0.90;;;;;;;6.66;68.99;101046.19;5090111;28;20379;-35
2022/04/09 07:47:56;;;;;;;5.05;1.00;;;;;;;6.67;68.89;101059.41;5072632;28;20028;-36
2022/04/09 07:50:21;;;;;;;7.30;1.10;;;;;;;7.04;68.06;101056.59;5090169;28;20052;-36
2022/04/09 07:52:47;;;;;;;12.73;1.58;;;;;;;7.54;68.78;101057.81;5089820;28;20084;-38
2022/04/09 07:55:16;;;;;;;12.38;2.15;;;;;;;7.74;67.62;101062.97;5088081;28;20056;-37
2022/04/09 07:57:42;;;;;;;10.88;2.20;;;;;;;7.75;68.59;101064.66;5087124;28;20059;-36
2022/04/09 08:00:08;;;;;;;12.85;2.40;;;;;;;8.16;69.59;101059.50;5089788;28;20028;-34
2022/04/09 08:02:34;;;;;;;12.43;2.85;;;;;;;8.21;70.59;101070.59;5089852;28;20056;-35
2022/04/09 08:05:00;;;;;;;20.33;2.85;;;;;;;8.34;71.86;101076.34;5089241;28;20201;-36
2022/04/09 08:07:25;;;;;;;28.88;4.40;;;;;;;8.51;70.43;101085.31;5089711;28;20049;-35
2022/04/09 08:09:50;;;;;;;18.17;3.45;;;;;;;8.33;69.50;101088.06;5089732;28;20040;-36
2022/04/09 08:12:16;;;;;;;24.00;3.15;;;;;;;8.05;68.56;101090.94;5089106;28;20107;-35
2022/04/09 08:14:42;;;;;;;18.15;3.10;;;;;;;7.99;67.93;101094.28;5088630;28;20036;-37
2022/04/09 08:17:08;;;;;;;21.00;3.72;;;;;;;7.86;69.52;101107.25;5071011;28;20044;-37
2022/04/09 08:19:37;;;;;;;21.52;2.83;;;;;;;7.54;69.17;101103.34;5091708;28;20024;-35
2022/04/09 08:22:03;;;;;;;24.33;2.90;;;;;;;7.57;69.54;101110.22;5092995;28;20020;-34
2022/04/09 08:24:29;;;;;;;19.02;3.60;;;;;;;7.51;69.68;101101.00;5092891;28;20031;-34
2022/04/09 08:26:54;;;;;;;20.00;3.05;;;;;;;7.56;70.67;101098.69;5090984;28;20021;-33
2022/04/09 08:29:20;;;;;;;27.83;2.92;;;;;;;8.52;68.13;101100.41;5090921;28;20055;-35
2022/04/09 08:31:47;;;;;;;13.45;2.78;;;;;;;10.03;66.37;101107.22;5091137;28;20035;-35
2022/04/09 08:34:17;;;;;;;13.15;2.72;;;;;;;11.08;62.52;101108.78;5091412;28;20405;-36
2022/04/09 08:36:43;;;;;;;15.60;3.70;;;;;;;11.76;59.65;101105.19;5092140;28;20036;-34
2022/04/09 08:39:08;;;;;;;19.45;3.20;;;;;;;12.05;58.35;101104.41;5092243;28;20075;-37
2022/04/09 08:41:44;;;;;;;19.25;3.08;;;;;;;12.53;56.58;101106.72;5092811;28;20037;-35
2022/04/09 08:44:10;;;;;;;21.90;3.03;;;;;;;13.20;54.28;101111.03;5092500;28;20535;-33
2022/04/09 08:46:35;;;;;;;17.92;3.25;;;;;;;13.54;52.36;101109.50;5093285;28;20020;-34
2022/04/09 08:49:04;;;;;;;18.27;3.03;;;;;;;14.21;50.67;101114.34;5092547;28;20031;-35
2022/04/09 08:51:29;;;;;;;11.60;2.60;;;;;;;14.62;50.84;101126.28;5092457;28;20045;-36
2022/04/09 08:53:55;;;;;;;21.20;3.33;;;;;;;14.87;50.42;101130.09;5073922;28;20172;-34
2022/04/09 08:56:21;;;;;;;17.95;3.22;;;;;;;14.09;49.73;101140.31;5075130;28;20025;-33
2022/04/09 08:58:46;;;;;;;19.83;3.33;;;;;;;13.46;51.88;101144.78;5074718;28;20021;-35
2022/04/09 09:01:12;;;;;;;18.15;3.67;;;;;;;13.13;50.41;101137.13;5092370;28;20043;-34
2022/04/09 09:03:38;;;;;;;17.10;3.33;;;;;;;12.59;52.98;101137.56;5092152;28;20054;-35
2022/04/09 09:06:27;;;;;;;17.05;3.33;;;;;;;12.38;52.47;101162.59;5092268;28;20013;-33
2022/04/09 09:08:53;;;;;;;19.45;3.35;;;;;;;12.33;53.26;101154.22;5092510;28;20484;-35
2022/04/09 09:11:19;;;;;;;16.35;3.50;;;;;;;12.21;54.89;101159.22;5097278;28;20060;-34
2022/04/09 09:13:50;;;;;;;15.55;2.88;;;;;;;12.20;54.47;101160.25;5098306;28;20039;-33
2022/04/09 09:16:30;;;;;;;16.02;3.45;;;;;;;11.89;54.97;101158.53;5092045;28;20095;-34
2022/04/09 09:18:57;;;;;;;14.35;3.10;;;;;;;12.28;56.07;101157.47;5092454;28;20052;-36
2022/04/09 09:21:23;;;;;;;16.92;3.13;;;;;;;13.35;54.59;101168.59;5091403;28;20130;-34
2022/04/09 09:23:51;;;;;;;20.38;3.30;;;;;;;13.59;51.19;101166.56;5091753;28;20021;-37
2022/04/09 09:26:22;;;;;;;17.20;2.80;;;;;;;13.61;49.30;101159.91;5091051;28;20035;-36
2022/04/09 09:28:55;;;;;;;11.35;2.67;;;;;;;13.46;49.93;101177.25;5072951;28;20063;-34
2022/04/09 09:31:41;;;;;;;15.13;2.70;;;;;;;13.64;48.87;101169.50;5072415;28;20032;-35
2022/04/09 09:34:08;;;;;;;14.60;2.88;;;;;;;13.59;50.56;101182.78;5090908;28;20030;-35
2022/04/09 09:36:33;;;;;;;14.07;2.65;;;;;;;14.05;49.47;101193.97;5089716;28;20058;-35
2022/04/09 09:39:03;;;;;;;14.25;2.80;;;;;;;14.71;48.38;101180.06;5094559;28;20047;-34
2022/04/09 09:41:28;;;;;;;14.43;2.33;;;;;;;15.26;44.39;101190.91;5091605;28;20084;-35
2022/04/09 09:44:06;;;;;;;18.40;2.95;;;;;;;14.69;46.25;101190.28;5085411;28;20048;-35
2022/04/09 09:46:32;;;;;;;17.85;2.97;;;;;;;14.44;46.11;101192.59;5092808;28;20036;-37
2022/04/09 09:48:58;;;;;;;12.82;2.63;;;;;;;13.88;46.39;101187.19;5086707;28;20033;-35
2022/04/09 09:51:24;;;;;;;17.83;2.88;;;;;;;13.08;49.48;101202.56;5089389;28;20051;-36
2022/04/09 09:53:49;;;;;;;17.20;3.72;;;;;;;12.70;51.05;101193.78;5095712;28;20471;-36
2022/04/09 09:56:41;;;;;;;17.17;2.90;;;;;;;13.59;51.11;101210.66;5096704;28;20036;-36
2022/04/09 09:59:07;;;;;;;9.43;2.25;;;;;;;14.03;46.86;101200.63;5087042;28;20467;-34
2022/04/09 10:01:42;;;;;;;18.23;2.67;;;;;;;13.89;46.50;101205.09;5084956;28;20036;-35
2022/04/09 10:04:11;;;;;;;21.45;2.85;;;;;;;14.04;47.74;101207.72;5087393;28;20636;-37
2022/04/09 10:06:38;;;;;;;12.50;2.45;;;;;;;14.26;48.00;101206.63;5081585;28;20027;-33
2022/04/09 10:09:07;;;;;;;15.95;2.78;;;;;;;14.69;44.32;101211.09;5062332;28;20044;-36
2022/04/09 10:11:35;;;;;;;11.52;2.67;;;;;;;14.74;46.09;101213.22;5064719;28;20120;-37
2022/04/09 10:14:01;;;;;;;11.65;2.83;;;;;;;14.85;46.12;101232.47;5086441;28;20016;-35
2022/04/09 10:16:27;;;;;;;17.20;3.50;;;;;;;14.54;45.89;101226.66;5084457;28;20051;-35
2022/04/09 10:18:56;;;;;;;15.90;2.97;;;;;;;14.40;46.28;101228.38;5085145;28;20058;-35
2022/04/09 10:21:21;;;;;;;12.15;2.58;;;;;;;14.33;45.43;101227.53;5069955;28;20056;-36
2022/04/09 10:23:47;;;;;;;23.30;3.05;;;;;;;14.32;47.68;101231.25;5086643;28;20451;-35
2022/04/09 10:26:12;;;;;;;21.40;2.88;;;;;;;14.82;45.66;101238.25;5075316;28;20100;-34
2022/04/09 10:28:39;;;;;;;16.02;2.55;;;;;;;15.14;44.50;101242.19;5087533;28;20043;-34
2022/04/09 10:31:23;;;;;;;13.95;2.35;;;;;;;14.77;45.14;101246.19;5070276;28;20438;-34
2022/04/09 10:33:54;;;;;;;23.23;2.63;;;;;;;14.99;45.71;101255.03;5086184;28;20028;-35
2022/04/09 10:36:40;;;;;;;23.67;2.92;;;;;;;14.52;44.19;101243.06;5076854;28;20044;-37
2022/04/09 10:39:29;;;;;;;18.55;3.45;;;;;;;14.00;46.42;101260.56;5091701;28;20084;-34
2022/04/09 10:41:55;;;;;;;22.88;3.25;;;;;;;14.14;47.12;101251.53;5091159;28;20024;-37
2022/04/09 10:44:43;;;;;;;20.75;2.65;;;;;;;14.10;45.42;101247.53;5092723;28;20044;-33
2022/04/09 10:47:10;;;;;;;20.55;3.47;;;;;;;14.40;45.80;101266.31;5084739;28;20012;-34
2022/04/09 10:49:36;;;;;;;19.17;2.70;;;;;;;13.96;46.24;101256.59;5088621;28;20025;-35
2022/04/09 10:52:16;;;;;;;22.10;2.83;;;;;;;14.11;46.13;101251.06;5052709;28;20049;-36
2022/04/09 10:55:10;;;;;;;16.52;2.60;;;;;;;13.67;47.41;101271.91;5068679;28;20040;-36
2022/04/09 10:57:46;;;;;;;20.90;2.28;;;;;;;12.93;48.77;101275.53;5086697;28;20036;-36
2022/04/09 11:00:22;;;;;;;13.50;2.10;;;;;;;12.50;48.77;101269.91;5088264;28;20047;-37
2022/04/09 11:03:30;;;;;;;18.90;2.55;;;;;;;11.70;50.47;101256.09;5089224;28;20044;-35
2022/04/09 11:06:38;;;;;;;12.13;2.15;;;;;;;11.12;50.19;101267.19;5083179;28;20020;-35
2022/04/09 11:09:03;;;;;;;;;;;;;;;10.87;50.43;101270.97;5088505;28;20115;-34
2022/04/09 11:11:29;;;;;;;12.95;1.92;;;;;;;10.57;52.78;101261.81;5087674;28;19943;-35
2022/04/09 11:13:54;;;;;;;12.98;1.77;;;;;;;10.16;52.33;101275.28;5070774;28;20100;-35
2022/04/09 11:16:20;;;;;;;18.90;1.88;;;;;;;10.20;52.48;101274.78;5088493;28;20035;-33
2022/04/09 11:18:47;;;;;;;19.58;2.00;;;;;;;10.32;52.94;101284.22;5088217;28;20032;-34
2022/04/09 11:21:12;;;;;;;17.85;1.95;;;;;;;10.11;53.08;101286.56;5069274;28;21423;-33
2022/04/09 11:23:38;;;;;;;18.30;2.05;;;;;;;10.09;53.87;101284.03;5087550;28;20033;-33